Time;durP1;ratioP1;P1;durP2;ratioP2;P2;SDS_P1;SDS_P2;PMS_P1;PMS_P2;Temp;Humidity;BMP_temperature;BMP_pressure;BME280_temperature;BME280_humidity;BME280_pressure;Samples;Min_cycle;Max_cycle;Signal;HPM_P1;HPM_P2
2022/02/19 00:02:19;;;;;;;98.05;36.63;;;;;;;-1.94;100.00;100746.33;1625213;86;20905;-87
2022/02/19 00:04:45;;;;;;;92.47;38.63;;;;;;;-1.95;100.00;100741.20;1625314;86;21595;-87
2022/02/19 00:07:11;;;;;;;102.42;38.73;;;;;;;-1.94;100.00;100749.44;1625170;88;20909;-88
2022/02/19 00:09:37;;;;;;;93.85;36.63;;;;;;;-1.95;100.00;100752.58;1625751;88;21077;-87
2022/02/19 00:12:04;;;;;;;93.60;34.90;;;;;;;-2.02;100.00;100749.00;1625283;88;21550;-87
2022/02/19 00:14:31;;;;;;;92.10;35.83;;;;;;;-2.02;100.00;100753.47;1625301;86;21098;-87
2022/02/19 00:16:57;;;;;;;113.05;37.98;;;;;;;-2.06;100.00;100754.29;1625265;88;21150;-87
2022/02/19 00:19:23;;;;;;;99.40;38.78;;;;;;;-2.07;100.00;100757.43;1625436;88;20929;-87
2022/02/19 00:21:49;;;;;;;99.50;38.85;;;;;;;-2.07;100.00;100757.94;1625265;86;21019;-87
2022/02/19 00:24:15;;;;;;;96.90;35.65;;;;;;;-2.05;100.00;100759.91;1625632;88;21548;-87
2022/02/19 00:26:41;;;;;;;91.85;35.28;;;;;;;-2.08;100.00;100770.82;1625212;88;20973;-87
2022/02/19 00:29:07;;;;;;;98.20;35.78;;;;;;;-2.13;100.00;100776.60;1625205;88;21012;-87
2022/02/19 00:31:33;;;;;;;99.97;35.55;;;;;;;-2.15;100.00;100771.98;1625250;88;21091;-87
2022/02/19 00:33:59;;;;;;;104.10;38.05;;;;;;;-2.13;100.00;100772.64;1625344;88;21153;-87
2022/02/19 00:36:25;;;;;;;100.35;39.55;;;;;;;-2.08;100.00;100769.00;1625259;88;20881;-87
2022/02/19 00:38:50;;;;;;;113.77;38.07;;;;;;;-2.01;100.00;100770.94;1624519;87;21094;-87
2022/02/19 00:41:18;;;;;;;94.30;36.50;;;;;;;-1.97;100.00;100773.08;1624140;88;20905;-87
2022/02/19 00:43:44;;;;;;;100.18;37.13;;;;;;;-1.94;100.00;100775.38;1623733;88;21059;-87
2022/02/19 00:46:11;;;;;;;104.00;37.78;;;;;;;-1.92;100.00;100774.68;1623883;88;21172;-87
2022/02/19 00:48:37;;;;;;;101.97;39.13;;;;;;;-1.89;100.00;100774.33;1623852;88;21476;-87
2022/02/19 00:51:04;;;;;;;101.72;37.08;;;;;;;-1.89;100.00;100773.52;1623780;88;20999;-87
2022/02/19 00:53:29;;;;;;;97.82;36.83;;;;;;;-1.88;100.00;100776.50;1636959;84;21047;-86
2022/02/19 00:55:56;;;;;;;105.20;36.70;;;;;;;-1.87;100.00;100776.31;1707896;83;21035;-87
2022/02/19 00:58:22;;;;;;;101.00;35.80;;;;;;;-1.91;100.00;100776.34;1708120;83;21837;-87
2022/02/19 01:00:48;;;;;;;99.15;36.15;;;;;;;-1.92;100.00;100787.88;1707667;83;20893;-87
2022/02/19 01:03:14;;;;;;;90.15;37.53;;;;;;;-1.95;100.00;100794.02;1708020;84;20947;-87
2022/02/19 01:05:40;;;;;;;103.90;39.53;;;;;;;-1.98;100.00;100791.72;1708119;83;20992;-87
2022/02/19 01:08:07;;;;;;;95.57;36.38;;;;;;;-2.01;100.00;100786.28;1708155;83;21082;-87
2022/02/19 01:10:34;;;;;;;103.75;38.70;;;;;;;-2.01;100.00;100793.39;1688071;84;21103;-87
2022/02/19 01:13:00;;;;;;;99.72;36.08;;;;;;;-2.01;100.00;100798.67;1707616;83;21049;-86
2022/02/19 01:15:26;;;;;;;94.42;36.10;;;;;;;-2.02;100.00;100800.48;1707902;84;20994;-87
2022/02/19 01:17:53;;;;;;;92.22;33.65;;;;;;;-2.09;100.00;100796.41;1708310;83;20968;-87
2022/02/19 01:20:20;;;;;;;91.25;33.98;;;;;;;-2.10;100.00;100807.13;1707908;83;21055;-87
2022/02/19 01:22:46;;;;;;;88.78;35.15;;;;;;;-2.14;100.00;100802.69;1707980;83;21924;-87
2022/02/19 01:25:13;;;;;;;86.78;33.25;;;;;;;-2.18;100.00;100805.83;1708136;83;21070;-87
2022/02/19 01:27:40;;;;;;;89.75;32.83;;;;;;;-2.21;100.00;100803.53;1708045;83;21075;-86
2022/02/19 01:30:08;;;;;;;88.80;35.60;;;;;;;-2.24;100.00;100799.91;1708103;84;21011;-87
2022/02/19 01:32:34;;;;;;;86.78;33.65;;;;;;;-2.24;100.00;100801.23;1687536;84;21020;-87
2022/02/19 01:35:00;;;;;;;104.80;36.03;;;;;;;-2.26;100.00;100800.58;1708105;83;21025;-87
2022/02/19 01:37:26;;;;;;;88.75;35.15;;;;;;;-2.30;100.00;100808.83;1707941;83;21007;-87
2022/02/19 01:39:53;;;;;;;94.80;33.65;;;;;;;-2.33;100.00;100817.09;1732808;82;21434;-87
2022/02/19 01:42:19;;;;;;;98.42;34.75;;;;;;;-2.34;100.00;100813.31;1754006;81;21026;-87
2022/02/19 01:44:49;;;;;;;89.58;34.18;;;;;;;-2.39;100.00;100814.31;1754263;81;20987;-86
2022/02/19 01:47:15;;;;;;;92.08;35.35;;;;;;;-2.44;100.00;100816.16;1754347;81;21310;-87
2022/02/19 01:49:41;;;;;;;88.12;34.78;;;;;;;-2.45;100.00;100815.81;1744252;82;21500;-86
2022/02/19 01:52:11;;;;;;;94.70;34.90;;;;;;;-2.46;100.00;100819.45;1754157;81;21035;-87
2022/02/19 01:54:39;;;;;;;88.07;34.38;;;;;;;-2.48;100.00;100821.43;1753967;81;21007;-87
2022/02/19 01:57:05;;;;;;;88.97;31.20;;;;;;;-2.49;100.00;100820.30;1754159;81;21109;-87
2022/02/19 01:59:37;;;;;;;96.00;35.88;;;;;;;-2.52;100.00;100817.50;1753945;81;21076;-87
2022/02/19 02:02:04;;;;;;;84.67;33.67;;;;;;;-2.54;100.00;100828.20;1710896;83;21578;-87
2022/02/19 02:04:30;;;;;;;87.65;33.63;;;;;;;-2.55;100.00;100823.11;1690638;84;21096;-87
2022/02/19 02:06:57;;;;;;;85.97;31.70;;;;;;;-2.58;100.00;100832.17;1690507;84;21057;-87
2022/02/19 02:09:24;;;;;;;84.90;32.35;;;;;;;-2.61;100.00;100833.84;1690517;84;21718;-87
2022/02/19 02:11:54;;;;;;;86.12;32.15;;;;;;;-2.63;100.00;100841.58;1690966;84;21174;-87
2022/02/19 02:14:20;;;;;;;80.62;32.38;;;;;;;-2.64;100.00;100854.45;1668598;84;21075;-87
2022/02/19 02:16:46;;;;;;;84.20;31.02;;;;;;;-2.65;100.00;100850.97;1690672;84;20861;-86
2022/02/19 02:19:14;;;;;;;88.47;33.50;;;;;;;-2.65;100.00;100853.61;1690807;84;20960;-87
2022/02/19 02:21:40;;;;;;;82.35;31.65;;;;;;;-2.64;100.00;100857.09;1690178;84;21588;-87
2022/02/19 02:24:07;;;;;;;81.95;29.72;;;;;;;-2.66;100.00;100862.52;1690762;84;21171;-87
2022/02/19 02:26:34;;;;;;;81.57;31.35;;;;;;;-2.68;100.00;100857.89;1690522;84;21123;-87
2022/02/19 02:29:01;;;;;;;81.78;30.72;;;;;;;-2.68;100.00;100862.35;1690190;84;22556;-88
2022/02/19 02:31:27;;;;;;;77.82;30.60;;;;;;;-2.70;100.00;100870.95;1690640;84;21016;-87
2022/02/19 02:33:54;;;;;;;78.87;30.15;;;;;;;-2.71;100.00;100871.92;1690800;83;21023;-88
2022/02/19 02:36:20;;;;;;;82.08;30.92;;;;;;;-2.76;100.00;100870.61;1690602;84;21097;-87
2022/02/19 02:38:47;;;;;;;79.67;30.55;;;;;;;-2.76;100.00;100875.89;1695622;82;21503;-87
2022/02/19 02:41:14;;;;;;;86.45;31.93;;;;;;;-2.77;100.00;100874.22;1734522;82;21106;-87
2022/02/19 02:43:41;;;;;;;82.97;33.33;;;;;;;-2.80;100.00;100880.33;1734659;82;21063;-87
2022/02/19 02:46:07;;;;;;;81.08;32.13;;;;;;;-2.82;100.00;100879.69;1734587;82;21067;-87
2022/02/19 02:48:34;;;;;;;75.95;31.90;;;;;;;-2.84;100.00;100879.02;1734490;81;21003;-86
2022/02/19 02:51:03;;;;;;;78.72;32.25;;;;;;;-2.87;100.00;100886.77;1734255;82;21053;-87
2022/02/19 02:53:28;;;;;;;77.67;30.90;;;;;;;-2.88;100.00;100873.73;1734181;82;21047;-87
2022/02/19 02:55:54;;;;;;;79.05;30.57;;;;;;;-2.90;100.00;100877.86;1734507;82;20924;-87
2022/02/19 02:58:20;;;;;;;74.17;27.80;;;;;;;-2.94;100.00;100883.15;1734480;82;21016;-87
2022/02/19 03:00:46;;;;;;;72.62;28.15;;;;;;;-2.94;100.00;100882.30;1734425;82;21037;-87
2022/02/19 03:03:13;;;;;;;79.00;29.32;;;;;;;-2.97;100.00;100882.98;1734301;82;21055;-87
2022/02/19 03:05:40;;;;;;;73.45;26.57;;;;;;;-2.98;100.00;100889.22;1734079;82;21078;-87
2022/02/19 03:08:06;;;;;;;65.37;26.20;;;;;;;-2.97;100.00;100883.48;1734149;82;21105;-88
2022/02/19 03:10:32;;;;;;;68.80;27.15;;;;;;;-2.98;100.00;100879.99;1734773;82;21003;-88
2022/02/19 03:12:59;;;;;;;65.35;25.50;;;;;;;-2.99;100.00;100884.95;1734685;82;21073;-88
2022/02/19 03:15:25;;;;;;;64.80;25.50;;;;;;;-3.00;100.00;100893.85;1734173;82;21587;-87
2022/02/19 03:17:51;;;;;;;65.47;25.00;;;;;;;-3.04;100.00;100899.60;1734668;82;21090;-87
2022/02/19 03:20:20;;;;;;;61.63;25.57;;;;;;;-3.05;100.00;100904.05;1734474;82;21498;-88
2022/02/19 03:22:47;;;;;;;63.02;25.90;;;;;;;-3.04;100.00;100904.87;1734505;82;21023;-87
2022/02/19 03:25:17;;;;;;;61.40;25.40;;;;;;;-3.06;100.00;100905.52;1733998;82;21862;-87
2022/02/19 03:27:44;;;;;;;61.75;25.85;;;;;;;-3.09;100.00;100905.38;1734576;82;20941;-88
2022/02/19 03:30:12;;;;;;;65.12;25.88;;;;;;;-3.11;100.00;100903.39;1734517;82;21067;-88
2022/02/19 03:32:39;;;;;;;73.25;26.45;;;;;;;-3.11;100.00;100901.25;1734360;82;21537;-88
2022/02/19 03:35:07;;;;;;;62.83;24.85;;;;;;;-3.13;100.00;100906.67;1734433;82;21603;-88
2022/02/19 03:37:35;;;;;;;69.40;25.00;;;;;;;-3.15;100.00;100907.32;1734635;82;21183;-87
2022/02/19 03:40:06;;;;;;;61.05;24.75;;;;;;;-3.15;100.00;100903.87;1734228;82;21095;-88
2022/02/19 03:42:30;;;;;;;59.40;23.85;;;;;;;-3.17;100.00;100897.95;1733863;82;21087;-87
2022/02/19 03:44:56;;;;;;;56.65;22.87;;;;;;;-3.20;100.00;100899.92;1715764;82;21512;-88
2022/02/19 03:47:22;;;;;;;64.87;25.10;;;;;;;-3.22;100.00;100897.92;1734301;82;20916;-88
2022/02/19 03:49:48;;;;;;;63.58;25.88;;;;;;;-3.27;100.00;100891.49;1734797;82;21090;-88
2022/02/19 03:52:14;;;;;;;65.17;26.05;;;;;;;-3.22;100.00;100896.61;1734389;82;20963;-87
2022/02/19 03:54:39;;;;;;;66.85;25.68;;;;;;;-3.24;100.00;100891.98;1734588;82;20904;-87
2022/02/19 03:57:05;;;;;;;59.35;25.27;;;;;;;-3.24;100.00;100890.67;1734704;82;21590;-87
2022/02/19 03:59:31;;;;;;;64.77;25.45;;;;;;;-3.26;100.00;100893.16;1715630;82;20873;-88
2022/02/19 04:01:57;;;;;;;64.53;24.72;;;;;;;-3.28;100.00;100889.36;1734651;82;21075;-88
2022/02/19 04:04:23;;;;;;;65.08;25.50;;;;;;;-3.30;100.00;100887.36;1734814;82;20940;-87
2022/02/19 04:06:49;;;;;;;65.22;24.87;;;;;;;-3.30;100.00;100882.59;1734873;82;20988;-87
2022/02/19 04:09:15;;;;;;;65.60;25.25;;;;;;;-3.31;100.00;100886.23;1734788;82;20949;-88
2022/02/19 04:11:42;;;;;;;67.17;25.65;;;;;;;-3.33;100.00;100887.69;1734849;82;21429;-88
2022/02/19 04:14:08;;;;;;;57.83;24.37;;;;;;;-3.33;100.00;100894.28;1734294;82;21216;-88
2022/02/19 04:16:34;;;;;;;65.25;24.52;;;;;;;-3.35;100.00;100894.10;1734803;82;21062;-88
2022/02/19 04:19:00;;;;;;;63.23;24.10;;;;;;;-3.37;100.00;100892.97;1734769;82;20873;-88
2022/02/19 04:21:26;;;;;;;56.13;22.32;;;;;;;-3.37;100.00;100898.73;1734823;82;20837;-87
2022/02/19 04:23:53;;;;;;;61.42;23.57;;;;;;;-3.35;100.00;100902.01;1734841;82;20920;-88
2022/02/19 04:26:19;;;;;;;58.20;22.98;;;;;;;-3.34;100.00;100897.09;1734520;82;21991;-87
2022/02/19 04:28:45;;;;;;;61.18;22.77;;;;;;;-3.33;100.00;100902.68;1734459;82;21001;-88
2022/02/19 04:31:11;;;;;;;63.78;22.60;;;;;;;-3.32;100.00;100906.48;1734732;82;20964;-88
2022/02/19 04:33:37;;;;;;;61.58;23.02;;;;;;;-3.30;100.00;100905.81;1734931;82;20940;-88
2022/02/19 04:36:03;;;;;;;57.73;23.15;;;;;;;-3.29;100.00;100907.98;1734808;82;20959;-88
2022/02/19 04:38:30;;;;;;;54.15;21.27;;;;;;;-3.27;100.00;100900.72;1734736;82;21213;-88
2022/02/19 04:40:57;;;;;;;57.30;20.05;;;;;;;-3.23;100.00;100902.06;1737783;82;21063;-88
2022/02/19 04:43:23;;;;;;;56.63;20.15;;;;;;;-3.18;100.00;100905.51;1754375;81;20988;-88
2022/02/19 04:45:49;;;;;;;55.58;20.17;;;;;;;-3.14;100.00;100905.03;1754234;81;21086;-89
2022/02/19 04:48:15;;;;;;;51.00;19.60;;;;;;;-3.07;100.00;100909.97;1703757;84;21528;-88
2022/02/19 04:50:41;;;;;;;53.10;20.35;;;;;;;-3.00;100.00;100911.45;1681812;85;21152;-88
2022/02/19 04:53:07;;;;;;;56.55;19.42;;;;;;;-2.92;100.00;100918.06;1746523;82;21007;-88
2022/02/19 04:55:34;;;;;;;54.10;19.07;;;;;;;-2.84;100.00;100929.13;1746476;82;20980;-87
2022/02/19 04:58:00;;;;;;;56.90;18.82;;;;;;;-2.73;100.00;100926.66;1746061;82;21477;-88
2022/02/19 05:00:26;;;;;;;47.50;18.50;;;;;;;-2.62;100.00;100935.08;1746413;81;21075;-87
2022/02/19 05:02:52;;;;;;;45.23;17.10;;;;;;;-2.53;100.00;100931.91;1746616;82;21879;-88
2022/02/19 05:05:18;;;;;;;51.68;18.65;;;;;;;-2.38;100.00;100936.87;1746427;82;20892;-87
2022/02/19 05:07:45;;;;;;;54.03;19.02;;;;;;;-2.28;100.00;100938.00;1746469;82;20955;-88
2022/02/19 05:10:11;;;;;;;56.70;19.90;;;;;;;-2.16;100.00;100935.84;1741398;82;21078;-88
2022/02/19 05:12:43;;;;;;;51.50;17.37;;;;;;;-2.03;100.00;100937.95;1746555;82;20999;-88
2022/02/19 05:15:12;;;;;;;45.78;16.73;;;;;;;-1.92;100.00;100940.23;1746264;82;21422;-88
2022/02/19 05:17:53;;;;;;;42.73;16.32;;;;;;;-1.79;100.00;100945.82;1641408;86;20984;-88
2022/02/19 05:20:22;;;;;;;43.98;15.10;;;;;;;-1.64;100.00;100951.22;1641539;87;21075;-89
2022/02/19 05:22:49;;;;;;;29.25;12.07;;;;;;;-1.49;100.00;100956.61;1581909;90;21054;-89
2022/02/19 05:25:16;;;;;;;27.62;11.18;;;;;;;-1.03;100.00;100961.50;1582013;90;21809;-88
2022/02/19 05:27:43;;;;;;;23.67;10.30;;;;;;;0.87;100.00;100961.59;1582259;90;21175;-88
2022/02/19 05:30:10;;;;;;;25.10;10.20;;;;;;;2.87;100.00;100963.06;1581947;90;21039;-88
2022/02/19 05:32:36;;;;;;;16.27;8.53;;;;;;;4.38;100.00;100959.28;1581966;89;21081;-88
2022/02/19 05:35:03;;;;;;;18.02;8.40;;;;;;;6.28;100.00;100929.84;1582032;90;21091;-88
2022/02/19 05:37:30;;;;;;;19.42;8.55;;;;;;;6.28;100.00;100929.84;1582000;89;21398;-88
2022/02/19 05:39:58;;;;;;;15.13;7.87;;;;;;;7.25;100.00;100935.70;1587800;87;21106;-88
2022/02/19 05:42:25;;;;;;;16.30;7.62;;;;;;;7.72;100.00;100942.48;1612989;88;21031;-88
2022/02/19 05:44:51;;;;;;;13.98;7.17;;;;;;;7.71;100.00;100948.91;1613160;88;20991;-88
2022/02/19 05:47:19;;;;;;;12.55;6.72;;;;;;;8.25;100.00;100946.09;1609499;88;20947;-87
2022/02/19 05:49:47;;;;;;;16.80;6.70;;;;;;;8.98;100.00;100945.45;1612893;88;21171;-87
2022/02/19 05:52:13;;;;;;;16.80;8.28;;;;;;;9.33;100.00;100949.84;1609394;88;21160;-88
2022/02/19 05:54:39;;;;;;;15.90;7.95;;;;;;;9.80;100.00;100956.80;1612808;88;21030;-87
2022/02/19 05:57:06;;;;;;;16.62;8.83;;;;;;;10.26;100.00;100958.27;1612928;88;21665;-87
2022/02/19 05:59:32;;;;;;;18.10;8.03;;;;;;;11.18;100.00;100952.66;1613033;88;21109;-87
2022/02/19 06:01:58;;;;;;;17.37;8.35;;;;;;;12.31;100.00;100944.88;1612572;88;21554;-87
2022/02/19 06:04:24;;;;;;;18.87;8.13;;;;;;;13.28;100.00;100951.97;1613075;88;21078;-87
2022/02/19 06:06:50;;;;;;;12.07;6.62;;;;;;;14.15;100.00;100960.59;1608703;88;21053;-88
2022/02/19 06:09:16;;;;;;;10.60;6.53;;;;;;;15.06;100.00;100963.53;1613095;88;21046;-87
2022/02/19 06:11:42;;;;;;;14.63;7.20;;;;;;;16.03;100.00;100962.79;1612694;87;21656;-88
2022/02/19 06:14:09;;;;;;;11.57;6.85;;;;;;;16.88;92.66;100963.18;1649928;83;21148;-89
2022/02/19 06:16:36;;;;;;;11.25;6.30;;;;;;;17.54;95.88;100964.93;1717717;83;21381;-88
2022/02/19 06:19:02;;;;;;;10.25;6.05;;;;;;;18.37;78.97;100967.28;1729626;81;21027;-90
2022/02/19 06:21:28;;;;;;;11.33;5.62;;;;;;;19.15;75.77;100974.16;1772357;80;21089;-89
2022/02/19 06:23:54;;;;;;;8.70;6.03;;;;;;;19.85;63.91;100967.83;1772173;81;21059;-89
2022/02/19 06:26:20;;;;;;;13.98;6.58;;;;;;;20.07;58.02;100972.47;1772463;80;20876;-88
2022/02/19 06:28:46;;;;;;;11.50;6.70;;;;;;;20.77;57.54;100965.34;1772621;80;21639;-89
2022/02/19 06:31:12;;;;;;;8.95;6.45;;;;;;;21.31;52.43;100971.33;1772164;81;20944;-88
2022/02/19 06:33:37;;;;;;;9.68;6.55;;;;;;;21.48;50.69;100958.22;1772165;80;20892;-88
2022/02/19 06:36:04;;;;;;;7.97;5.75;;;;;;;22.15;48.08;100962.25;1772176;80;21721;-89
2022/02/19 06:38:31;;;;;;;9.18;6.25;;;;;;;22.33;47.01;100965.19;1772101;80;21038;-87
2022/02/19 06:40:57;;;;;;;8.48;5.62;;;;;;;22.67;44.57;100962.80;1763232;79;21051;-88
2022/02/19 06:43:23;;;;;;;7.90;5.58;;;;;;;22.95;43.24;100976.09;1815261;78;20864;-87
2022/02/19 06:45:49;;;;;;;8.58;5.65;;;;;;;23.35;42.56;100975.59;1814917;79;21024;-86
2022/02/19 06:48:14;;;;;;;7.85;5.33;;;;;;;24.25;43.72;100962.45;1809999;79;20927;-87
2022/02/19 06:50:40;;;;;;;7.95;5.53;;;;;;;24.88;40.78;100956.58;1774094;80;20903;-87
2022/02/19 06:53:07;;;;;;;8.23;5.55;;;;;;;24.90;39.56;100953.46;1743542;82;21126;-88
2022/02/19 06:55:32;;;;;;;8.60;5.85;;;;;;;25.46;38.61;100954.11;1734605;82;21062;-87
2022/02/19 06:57:58;;;;;;;9.18;6.03;;;;;;;25.95;37.86;100954.67;1763618;81;21680;-88
2022/02/19 07:00:24;;;;;;;10.68;5.78;;;;;;;25.75;35.51;100957.86;1763563;81;20935;-88
2022/02/19 07:02:50;;;;;;;11.12;6.42;;;;;;;25.51;34.60;100964.90;1763609;81;20918;-88
2022/02/19 07:05:16;;;;;;;9.20;5.90;;;;;;;25.66;35.18;100965.51;1763521;81;21082;-88
2022/02/19 07:10:10;;;;;;;11.50;7.35;;;;;;;26.17;34.01;100964.28;1700133;84;20987;-89
2022/02/19 07:12:39;;;;;;;10.10;6.70;;;;;;;26.07;32.63;100972.31;1700388;84;21617;-90
2022/02/19 07:15:12;;;;;;;10.35;6.67;;;;;;;25.86;33.43;100964.29;1715475;83;21079;-90
2022/02/19 07:17:50;;;;;;;10.08;6.05;;;;;;;26.25;31.82;100965.27;1715578;83;21905;-93
2022/02/19 07:20:17;;;;;;;10.58;6.97;;;;;;;25.97;31.87;100949.59;1715681;83;21059;-91
2022/02/19 07:22:44;;;;;;;9.18;6.75;;;;;;;25.46;30.96;100948.00;1714776;83;21017;-89
2022/02/19 07:25:10;;;;;;;9.40;6.95;;;;;;;25.69;31.62;100944.09;1691416;83;20943;-90
2022/02/19 07:27:39;;;;;;;9.45;6.37;;;;;;;25.96;29.98;100940.27;1698615;83;21086;-91
2022/02/19 07:30:09;;;;;;;10.10;7.05;;;;;;;25.97;30.86;100942.70;1691272;83;21946;-89
2022/02/19 07:32:36;;;;;;;11.80;6.95;;;;;;;26.31;31.10;100949.22;1662478;84;21052;-89
2022/02/19 07:35:04;;;;;;;11.70;7.37;;;;;;;26.52;30.45;100945.60;1656567;85;21113;-90
2022/02/19 07:37:30;;;;;;;10.43;7.45;;;;;;;26.54;28.22;100945.26;1658330;86;21558;-90
2022/02/19 07:39:56;;;;;;;12.40;7.50;;;;;;;26.34;29.90;100943.77;1658885;86;21114;-90
2022/02/19 07:42:22;;;;;;;10.48;7.47;;;;;;;25.97;29.04;100959.27;1642158;85;21126;-90
2022/02/19 07:44:48;;;;;;;11.65;8.03;;;;;;;26.03;30.55;100965.30;1641697;87;20905;-90
2022/02/19 07:47:28;;;;;;;13.20;8.18;;;;;;;26.54;30.21;100955.73;1641601;87;21007;-91
2022/02/19 07:58:19;;;;;;;17.92;8.83;;;;;;;26.57;28.68;100942.56;1535777;93;21105;-92
2022/02/19 08:00:57;;;;;;;19.32;10.58;;;;;;;26.10;28.58;100939.84;1535815;93;21163;-92
2022/02/19 08:03:27;;;;;;;17.02;9.73;;;;;;;25.78;27.94;100940.59;1535810;93;21073;-91
2022/02/19 08:05:54;;;;;;;15.88;9.78;;;;;;;25.42;29.17;100941.59;1536167;92;21069;-92
2022/02/19 08:08:22;;;;;;;18.52;10.80;;;;;;;25.48;29.07;100933.87;1605382;89;21321;-91
2022/02/19 08:10:49;;;;;;;20.60;10.55;;;;;;;25.44;29.08;100919.16;1605092;89;21030;-91
2022/02/19 08:13:17;;;;;;;22.10;10.65;;;;;;;25.37;28.85;100923.32;1604825;89;21156;-90
2022/02/19 08:15:45;;;;;;;18.30;10.98;;;;;;;25.42;27.91;100915.97;1604856;88;21093;-91
2022/02/19 08:18:13;;;;;;;17.57;9.98;;;;;;;25.18;28.43;100922.38;1605100;88;21081;-90
2022/02/19 08:20:46;;;;;;;18.35;11.03;;;;;;;24.26;29.01;100916.42;1604995;89;21073;-90
2022/02/19 08:23:14;;;;;;;18.50;10.00;;;;;;;24.12;29.41;100922.84;1605968;86;21108;-90
2022/02/19 08:25:41;;;;;;;18.02;10.15;;;;;;;23.90;29.97;100926.84;1660566;86;21567;-88
2022/02/19 08:28:08;;;;;;;23.02;9.78;;;;;;;23.97;29.98;100905.88;1693948;84;21106;-89
2022/02/19 08:30:36;;;;;;;18.67;9.38;;;;;;;23.90;30.30;100938.66;1723570;83;21094;-88
2022/02/19 08:33:04;;;;;;;20.68;9.95;;;;;;;23.97;30.34;100927.90;1725099;83;22074;-89
2022/02/19 08:35:30;;;;;;;18.95;8.83;;;;;;;23.40;29.92;100941.59;1725095;83;21028;-89
2022/02/19 08:37:56;;;;;;;21.12;8.40;;;;;;;22.31;30.47;100954.29;1725206;83;21124;-88
2022/02/19 08:40:23;;;;;;;21.30;8.43;;;;;;;21.16;31.02;100945.22;1772281;79;20939;-88
2022/02/19 08:42:49;;;;;;;17.90;8.65;;;;;;;20.14;32.32;100940.78;1807359;79;20968;-89
2022/02/19 08:45:16;;;;;;;19.35;7.92;;;;;;;19.42;33.48;100937.70;1807163;79;21135;-88
2022/02/19 08:47:44;;;;;;;16.90;7.97;;;;;;;18.89;33.95;100941.13;1807442;79;21378;-87
2022/02/19 08:50:12;;;;;;;16.67;7.65;;;;;;;18.19;34.60;100941.47;1807291;79;21584;-90
2022/02/19 08:52:39;;;;;;;22.27;8.10;;;;;;;17.39;35.76;100932.48;1807318;79;21555;-89
2022/02/19 08:55:07;;;;;;;18.02;8.20;;;;;;;16.80;36.90;100946.41;1807361;79;21031;-90
2022/02/19 08:57:33;;;;;;;15.38;7.40;;;;;;;16.52;37.79;100941.84;1807237;78;21076;-88
2022/02/19 08:59:59;;;;;;;19.00;7.45;;;;;;;16.20;37.82;100931.61;1807154;78;21027;-88
2022/02/19 09:02:25;;;;;;;17.77;7.78;;;;;;;15.44;38.80;100937.99;1807159;78;20959;-87
2022/02/19 09:04:51;;;;;;;20.85;7.83;;;;;;;14.70;40.08;100941.19;1778124;79;20903;-87
2022/02/19 09:07:17;;;;;;;18.50;7.92;;;;;;;14.07;41.14;100951.14;1807255;78;21452;-88
2022/02/19 09:09:46;;;;;;;21.30;8.23;;;;;;;13.51;42.36;100957.41;1807438;79;21045;-87
2022/02/19 09:12:12;;;;;;;21.40;7.80;;;;;;;12.98;43.48;100949.20;1806744;79;20971;-87
2022/02/19 09:14:38;;;;;;;20.57;7.83;;;;;;;12.55;44.57;100946.61;1793628;80;20876;-90
2022/02/19 09:17:04;;;;;;;15.83;7.37;;;;;;;12.23;45.42;100952.13;1793555;80;20955;-88
2022/02/19 09:19:30;;;;;;;19.12;7.05;;;;;;;11.91;46.14;100957.08;1793454;80;20983;-88
2022/02/19 09:21:56;;;;;;;15.13;6.55;;;;;;;11.64;46.97;100963.03;1793514;80;21008;-88
2022/02/19 09:24:22;;;;;;;17.05;7.53;;;;;;;11.37;47.81;100964.70;1793533;78;21421;-87
2022/02/19 09:26:48;;;;;;;19.00;6.60;;;;;;;11.05;49.26;100966.53;1762054;80;21189;-87
2022/02/19 09:29:14;;;;;;;19.30;7.30;;;;;;;10.78;50.97;100974.59;1793001;80;20889;-88
2022/02/19 09:31:41;;;;;;;13.62;6.00;;;;;;;10.55;52.54;100971.61;1793450;80;20954;-88
2022/02/19 09:34:08;;;;;;;17.12;6.85;;;;;;;10.43;54.02;100971.73;1792765;80;21222;-88
2022/02/19 09:36:35;;;;;;;26.82;7.33;;;;;;;10.21;55.80;100968.45;1792833;79;20998;-88
2022/02/19 09:39:01;;;;;;;15.70;6.50;;;;;;;10.05;58.34;100966.59;1792802;80;21068;-89
2022/02/19 09:41:28;;;;;;;16.97;5.92;;;;;;;9.88;59.07;100974.70;1787863;79;22532;-88
2022/02/19 09:43:55;;;;;;;13.88;6.35;;;;;;;9.74;61.97;100974.75;1779381;80;21159;-88
2022/02/19 09:46:23;;;;;;;13.48;5.35;;;;;;;9.64;66.15;100969.18;1748408;80;22329;-91
2022/02/19 09:48:49;;;;;;;12.28;5.55;;;;;;;9.67;69.41;100968.69;1806541;79;21077;-88
2022/02/19 09:51:15;;;;;;;14.68;5.12;;;;;;;9.68;69.21;100964.42;1806711;79;20885;-89
2022/02/19 09:53:41;;;;;;;12.85;4.58;;;;;;;9.64;71.49;100953.04;1806617;79;21015;-89
2022/02/19 09:56:07;;;;;;;18.23;4.97;;;;;;;9.64;70.55;100959.23;1806718;79;20967;-87
2022/02/19 09:58:33;;;;;;;13.58;5.20;;;;;;;9.68;72.00;100963.62;1806919;79;21991;-87
2022/02/19 10:01:21;;;;;;;11.80;4.30;;;;;;;9.70;71.59;100954.21;1779316;79;21023;-88
2022/02/19 10:04:03;;;;;;;13.35;4.62;;;;;;;9.68;71.99;100950.97;1633469;87;21203;-86
2022/02/19 10:06:33;;;;;;;12.78;4.37;;;;;;;9.67;72.34;100956.58;1659508;85;21032;-87
2022/02/19 10:09:18;;;;;;;14.68;4.70;;;;;;;9.61;73.80;100962.95;1660590;86;21106;-86
2022/02/19 10:11:47;;;;;;;9.68;4.10;;;;;;;9.66;73.81;100968.42;1660791;86;21101;-87
2022/02/19 10:14:34;;;;;;;8.53;4.50;;;;;;;9.75;76.65;100970.98;1600676;88;21056;-86
2022/02/19 10:17:17;;;;;;;9.73;4.62;;;;;;;9.85;76.50;100959.55;1590085;89;21078;-87
2022/02/19 10:19:59;;;;;;;10.75;4.15;;;;;;;10.03;75.05;100957.12;1590584;89;20998;-88
2022/02/19 10:22:35;;;;;;;10.65;4.25;;;;;;;10.13;70.75;100952.71;1590201;89;21059;-89
2022/02/19 10:25:13;;;;;;;16.35;4.65;;;;;;;10.27;71.48;100926.28;1565508;90;21579;-88
2022/02/19 10:27:54;;;;;;;9.00;4.45;;;;;;;10.39;72.08;100926.97;1565480;90;21124;-88
2022/02/19 10:30:23;;;;;;;10.23;4.35;;;;;;;10.56;72.17;100919.34;1563857;90;21091;-87
2022/02/19 10:33:06;;;;;;;13.95;4.58;;;;;;;10.66;68.74;100910.04;1565484;90;21149;-87
2022/02/19 10:35:38;;;;;;;16.70;5.13;;;;;;;10.57;69.12;100887.30;1545822;90;21083;-88
2022/02/19 10:40:46;;;;;;;13.68;4.62;;;;;;;10.38;68.78;100898.41;1495763;94;21093;-88
2022/02/19 10:45:56;;;;;;;11.25;4.28;;;;;;;10.22;68.02;100872.30;1492795;94;21108;-88
2022/02/19 10:48:30;;;;;;;14.80;4.25;;;;;;;10.14;69.65;100866.81;1493268;94;21103;-88
2022/02/19 10:51:15;;;;;;;12.73;4.67;;;;;;;10.08;71.37;100888.55;1493510;94;21205;-88
2022/02/19 10:53:49;;;;;;;12.70;4.45;;;;;;;10.01;71.68;100886.04;1493048;94;21647;-88
2022/02/19 10:56:18;;;;;;;12.07;4.12;;;;;;;10.04;70.54;100883.39;1490772;94;21116;-88
2022/02/19 10:59:07;;;;;;;11.83;4.17;;;;;;;10.03;71.65;100883.92;1493152;94;21503;-89
2022/02/19 11:01:43;;;;;;;14.00;3.95;;;;;;;10.09;72.49;100894.20;1493100;94;21119;-89
2022/02/19 11:04:14;;;;;;;9.63;4.10;;;;;;;10.12;71.61;100881.61;1493438;94;21521;-89
2022/02/19 11:06:41;;;;;;;12.70;4.80;;;;;;;10.15;71.71;100874.37;1491212;94;21566;-88
2022/02/19 11:09:09;;;;;;;11.83;4.95;;;;;;;10.24;72.33;100866.95;1485946;95;21117;-89
2022/02/19 11:11:38;;;;;;;11.50;5.30;;;;;;;10.34;72.71;100864.13;1545248;89;21149;-89
2022/02/19 11:14:06;;;;;;;13.70;5.08;;;;;;;10.36;71.25;100855.27;1589663;89;22058;-88
2022/02/19 11:16:34;;;;;;;11.63;4.97;;;;;;;10.27;69.37;100836.05;1580843;89;22028;-91
2022/02/19 11:19:00;;;;;;;10.20;4.55;;;;;;;10.28;70.87;100829.58;1581414;89;21096;-89
2022/02/19 11:21:28;;;;;;;9.73;4.00;;;;;;;10.38;69.75;100820.28;1569874;89;22701;-89
2022/02/19 11:23:55;;;;;;;10.23;3.95;;;;;;;10.29;65.73;100830.39;1585857;88;21116;-91
2022/02/19 11:28:55;;;;;;;9.90;4.00;;;;;;;10.26;67.88;100822.24;1529141;93;21014;-90
2022/02/19 11:31:22;;;;;;;10.03;3.47;;;;;;;10.27;65.76;100821.23;1534333;93;20971;-87